sensor_id;sensor_type;location;lat;lon;timestamp;temperature;humidity
19090;DHT22;9677;50.656;13.064;2023-02-01T00:01:27;7.50;60.30
19090;DHT22;9677;50.656;13.064;2023-02-01T00:03:55;7.50;59.60
19090;DHT22;9677;50.656;13.064;2023-02-01T00:06:23;7.50;59.60
19090;DHT22;9677;50.656;13.064;2023-02-01T00:08:52;7.60;59.60
19090;DHT22;9677;50.656;13.064;2023-02-01T00:11:22;7.50;59.50
19090;DHT22;9677;50.656;13.064;2023-02-01T00:13:52;7.50;59.50
19090;DHT22;9677;50.656;13.064;2023-02-01T00:16:23;7.50;59.50
19090;DHT22;9677;50.656;13.064;2023-02-01T00:18:57;7.50;59.50
19090;DHT22;9677;50.656;13.064;2023-02-01T00:21:27;7.50;59.50
19090;DHT22;9677;50.656;13.064;2023-02-01T00:23:56;7.50;59.50
19090;DHT22;9677;50.656;13.064;2023-02-01T00:26:30;7.50;59.50
19090;DHT22;9677;50.656;13.064;2023-02-01T00:28:59;7.50;59.50
19090;DHT22;9677;50.656;13.064;2023-02-01T00:31:29;7.50;59.40
19090;DHT22;9677;50.656;13.064;2023-02-01T00:33:58;7.50;60.00
19090;DHT22;9677;50.656;13.064;2023-02-01T00:36:27;7.40;59.30
19090;DHT22;9677;50.656;13.064;2023-02-01T00:38:56;7.50;59.40
19090;DHT22;9677;50.656;13.064;2023-02-01T00:41:25;7.40;59.30
19090;DHT22;9677;50.656;13.064;2023-02-01T00:43:54;7.40;59.20
19090;DHT22;9677;50.656;13.064;2023-02-01T00:46:23;7.40;59.20
19090;DHT22;9677;50.656;13.064;2023-02-01T00:48:53;7.50;59.30
19090;DHT22;9677;50.656;13.064;2023-02-01T00:51:23;7.40;59.20
19090;DHT22;9677;50.656;13.064;2023-02-01T00:53:55;7.50;59.30
19090;DHT22;9677;50.656;13.064;2023-02-01T00:56:24;7.50;59.40
19090;DHT22;9677;50.656;13.064;2023-02-01T00:58:54;7.40;59.30
19090;DHT22;9677;50.656;13.064;2023-02-01T01:01:23;7.40;59.30
19090;DHT22;9677;50.656;13.064;2023-02-01T01:03:58;7.50;59.30
19090;DHT22;9677;50.656;13.064;2023-02-01T01:06:29;7.50;59.30
19090;DHT22;9677;50.656;13.064;2023-02-01T01:09:00;7.40;59.20
19090;DHT22;9677;50.656;13.064;2023-02-01T01:11:32;7.40;59.30
19090;DHT22;9677;50.656;13.064;2023-02-01T01:14:01;7.40;59.10
19090;DHT22;9677;50.656;13.064;2023-02-01T01:16:32;7.40;59.20
19090;DHT22;9677;50.656;13.064;2023-02-01T01:19:02;7.40;59.00
19090;DHT22;9677;50.656;13.064;2023-02-01T01:21:31;7.40;59.00
19090;DHT22;9677;50.656;13.064;2023-02-01T01:23:59;7.40;58.90
19090;DHT22;9677;50.656;13.064;2023-02-01T01:26:29;7.30;59.00
19090;DHT22;9677;50.656;13.064;2023-02-01T01:29:13;7.30;59.10
19090;DHT22;9677;50.656;13.064;2023-02-01T01:31:42;7.30;59.10
19090;DHT22;9677;50.656;13.064;2023-02-01T01:34:12;7.40;59.10
19090;DHT22;9677;50.656;13.064;2023-02-01T01:36:40;7.40;59.20
19090;DHT22;9677;50.656;13.064;2023-02-01T01:39:08;7.40;59.20
19090;DHT22;9677;50.656;13.064;2023-02-01T01:41:37;7.40;59.20
19090;DHT22;9677;50.656;13.064;2023-02-01T01:44:58;7.50;59.20
19090;DHT22;9677;50.656;13.064;2023-02-01T01:47:34;7.40;59.00
19090;DHT22;9677;50.656;13.064;2023-02-01T01:50:08;7.40;59.00
19090;DHT22;9677;50.656;13.064;2023-02-01T01:52:45;7.30;58.90
19090;DHT22;9677;50.656;13.064;2023-02-01T01:55:17;7.40;58.90
19090;DHT22;9677;50.656;13.064;2023-02-01T02:01:09;7.30;58.70
19090;DHT22;9677;50.656;13.064;2023-02-01T02:03:40;7.40;58.80
19090;DHT22;9677;50.656;13.064;2023-02-01T02:06:17;7.40;58.90
19090;DHT22;9677;50.656;13.064;2023-02-01T02:08:50;7.40;58.80
19090;DHT22;9677;50.656;13.064;2023-02-01T02:11:19;7.40;58.70
19090;DHT22;9677;50.656;13.064;2023-02-01T02:13:50;7.30;58.70
19090;DHT22;9677;50.656;13.064;2023-02-01T02:23:10;7.30;58.60
19090;DHT22;9677;50.656;13.064;2023-02-01T02:25:59;7.30;58.70
19090;DHT22;9677;50.656;13.064;2023-02-01T02:28:56;7.40;58.80
19090;DHT22;9677;50.656;13.064;2023-02-01T02:32:04;7.30;58.80
19090;DHT22;9677;50.656;13.064;2023-02-01T02:34:55;7.30;58.70
19090;DHT22;9677;50.656;13.064;2023-02-01T02:37:52;7.30;58.70
19090;DHT22;9677;50.656;13.064;2023-02-01T02:40:27;7.30;58.50
19090;DHT22;9677;50.656;13.064;2023-02-01T02:43:05;7.30;58.60
19090;DHT22;9677;50.656;13.064;2023-02-01T02:46:01;7.20;58.60
19090;DHT22;9677;50.656;13.064;2023-02-01T02:48:53;7.30;58.70
19090;DHT22;9677;50.656;13.064;2023-02-01T02:51:29;7.20;58.60
19090;DHT22;9677;50.656;13.064;2023-02-01T02:54:21;7.40;58.40
19090;DHT22;9677;50.656;13.064;2023-02-01T02:57:12;7.20;58.40
19090;DHT22;9677;50.656;13.064;2023-02-01T03:00:03;7.20;58.60
19090;DHT22;9677;50.656;13.064;2023-02-01T03:02:52;7.20;58.60
19090;DHT22;9677;50.656;13.064;2023-02-01T03:05:42;7.20;58.50
19090;DHT22;9677;50.656;13.064;2023-02-01T03:08:16;7.20;58.50
19090;DHT22;9677;50.656;13.064;2023-02-01T03:10:52;7.20;58.40
19090;DHT22;9677;50.656;13.064;2023-02-01T03:13:28;7.20;58.40
19090;DHT22;9677;50.656;13.064;2023-02-01T03:16:06;7.20;58.50
19090;DHT22;9677;50.656;13.064;2023-02-01T03:18:42;7.10;58.50
19090;DHT22;9677;50.656;13.064;2023-02-01T03:21:19;7.10;58.60
19090;DHT22;9677;50.656;13.064;2023-02-01T03:24:18;7.20;58.60
19090;DHT22;9677;50.656;13.064;2023-02-01T03:26:52;7.10;58.50
19090;DHT22;9677;50.656;13.064;2023-02-01T03:29:25;7.20;58.70
19090;DHT22;9677;50.656;13.064;2023-02-01T03:31:58;7.10;58.60
19090;DHT22;9677;50.656;13.064;2023-02-01T03:34:27;7.20;58.60
19090;DHT22;9677;50.656;13.064;2023-02-01T03:36:59;7.20;58.60
19090;DHT22;9677;50.656;13.064;2023-02-01T03:39:34;7.20;58.60
19090;DHT22;9677;50.656;13.064;2023-02-01T03:42:07;7.20;58.60
19090;DHT22;9677;50.656;13.064;2023-02-01T03:44:41;7.20;58.60
19090;DHT22;9677;50.656;13.064;2023-02-01T03:47:14;7.20;58.40
19090;DHT22;9677;50.656;13.064;2023-02-01T03:49:49;7.20;58.40
19090;DHT22;9677;50.656;13.064;2023-02-01T03:52:22;7.20;58.50
19090;DHT22;9677;50.656;13.064;2023-02-01T03:54:53;7.40;58.60
19090;DHT22;9677;50.656;13.064;2023-02-01T03:57:25;7.20;58.40
19090;DHT22;9677;50.656;13.064;2023-02-01T04:00:05;7.20;58.30
19090;DHT22;9677;50.656;13.064;2023-02-01T04:05:59;7.20;58.30
19090;DHT22;9677;50.656;13.064;2023-02-01T04:08:29;8.00;58.70
19090;DHT22;9677;50.656;13.064;2023-02-01T04:10:58;7.20;58.20
19090;DHT22;9677;50.656;13.064;2023-02-01T04:13:27;7.20;58.20
19090;DHT22;9677;50.656;13.064;2023-02-01T04:15:55;7.20;58.70
19090;DHT22;9677;50.656;13.064;2023-02-01T04:18:24;7.20;58.20
19090;DHT22;9677;50.656;13.064;2023-02-01T04:20:52;7.20;58.20
19090;DHT22;9677;50.656;13.064;2023-02-01T04:23:20;7.20;58.10
19090;DHT22;9677;50.656;13.064;2023-02-01T04:25:49;7.20;58.10
19090;DHT22;9677;50.656;13.064;2023-02-01T04:28:20;7.20;58.10
19090;DHT22;9677;50.656;13.064;2023-02-01T04:30:48;7.10;58.10
19090;DHT22;9677;50.656;13.064;2023-02-01T04:33:17;7.30;58.10
19090;DHT22;9677;50.656;13.064;2023-02-01T04:35:45;7.20;58.20
19090;DHT22;9677;50.656;13.064;2023-02-01T04:38:14;7.20;58.10
19090;DHT22;9677;50.656;13.064;2023-02-01T04:40:42;7.20;58.20
19090;DHT22;9677;50.656;13.064;2023-02-01T04:43:10;7.20;58.00
19090;DHT22;9677;50.656;13.064;2023-02-01T04:45:40;7.20;57.90
19090;DHT22;9677;50.656;13.064;2023-02-01T04:48:08;7.20;58.00
19090;DHT22;9677;50.656;13.064;2023-02-01T04:50:37;7.20;58.10
19090;DHT22;9677;50.656;13.064;2023-02-01T04:53:05;7.20;58.10
19090;DHT22;9677;50.656;13.064;2023-02-01T04:55:33;7.20;58.10
19090;DHT22;9677;50.656;13.064;2023-02-01T04:58:02;7.20;58.10
19090;DHT22;9677;50.656;13.064;2023-02-01T05:00:30;7.30;58.10
19090;DHT22;9677;50.656;13.064;2023-02-01T05:03:00;7.20;58.10
19090;DHT22;9677;50.656;13.064;2023-02-01T05:05:28;7.20;58.20
19090;DHT22;9677;50.656;13.064;2023-02-01T05:07:57;7.20;58.20
19090;DHT22;9677;50.656;13.064;2023-02-01T05:10:26;7.20;58.20
19090;DHT22;9677;50.656;13.064;2023-02-01T05:12:54;7.20;58.30
19090;DHT22;9677;50.656;13.064;2023-02-01T05:15:40;7.20;58.30
19090;DHT22;9677;50.656;13.064;2023-02-01T05:18:10;7.20;58.20
19090;DHT22;9677;50.656;13.064;2023-02-01T05:20:39;7.20;58.30
19090;DHT22;9677;50.656;13.064;2023-02-01T05:23:07;7.40;58.40
19090;DHT22;9677;50.656;13.064;2023-02-01T05:25:35;7.20;58.40
19090;DHT22;9677;50.656;13.064;2023-02-01T05:28:04;7.20;58.40
19090;DHT22;9677;50.656;13.064;2023-02-01T05:30:32;7.20;58.40
19090;DHT22;9677;50.656;13.064;2023-02-01T05:33:02;7.20;58.50
19090;DHT22;9677;50.656;13.064;2023-02-01T05:35:32;7.20;58.60
19090;DHT22;9677;50.656;13.064;2023-02-01T05:38:00;7.20;58.60
19090;DHT22;9677;50.656;13.064;2023-02-01T05:40:54;7.20;58.60
19090;DHT22;9677;50.656;13.064;2023-02-01T05:43:22;7.10;58.60
19090;DHT22;9677;50.656;13.064;2023-02-01T05:45:51;7.10;58.60
19090;DHT22;9677;50.656;13.064;2023-02-01T05:48:20;7.10;58.70
19090;DHT22;9677;50.656;13.064;2023-02-01T05:50:50;7.10;58.70
19090;DHT22;9677;50.656;13.064;2023-02-01T05:53:20;7.10;58.70
19090;DHT22;9677;50.656;13.064;2023-02-01T05:55:49;7.10;58.70
19090;DHT22;9677;50.656;13.064;2023-02-01T05:58:18;7.10;58.70
19090;DHT22;9677;50.656;13.064;2023-02-01T06:00:46;7.10;58.70
19090;DHT22;9677;50.656;13.064;2023-02-01T06:03:14;7.10;58.70
19090;DHT22;9677;50.656;13.064;2023-02-01T06:05:43;7.10;58.70
19090;DHT22;9677;50.656;13.064;2023-02-01T06:08:13;7.10;58.70
19090;DHT22;9677;50.656;13.064;2023-02-01T06:10:44;7.10;58.70
19090;DHT22;9677;50.656;13.064;2023-02-01T06:13:12;7.10;58.70
19090;DHT22;9677;50.656;13.064;2023-02-01T06:15:40;7.10;58.70
19090;DHT22;9677;50.656;13.064;2023-02-01T06:18:10;7.10;58.80
19090;DHT22;9677;50.656;13.064;2023-02-01T06:20:39;7.20;58.80
19090;DHT22;9677;50.656;13.064;2023-02-01T06:23:07;7.10;58.80
19090;DHT22;9677;50.656;13.064;2023-02-01T06:25:37;7.10;58.80
19090;DHT22;9677;50.656;13.064;2023-02-01T06:28:05;7.30;58.70
19090;DHT22;9677;50.656;13.064;2023-02-01T06:30:35;7.30;58.80
19090;DHT22;9677;50.656;13.064;2023-02-01T06:33:03;7.20;58.80
19090;DHT22;9677;50.656;13.064;2023-02-01T06:35:31;7.40;58.90
19090;DHT22;9677;50.656;13.064;2023-02-01T06:38:00;7.10;58.70
19090;DHT22;9677;50.656;13.064;2023-02-01T06:40:28;7.10;58.70
19090;DHT22;9677;50.656;13.064;2023-02-01T06:42:58;7.10;58.80
19090;DHT22;9677;50.656;13.064;2023-02-01T06:45:26;7.10;58.80
19090;DHT22;9677;50.656;13.064;2023-02-01T06:47:54;7.10;58.70
19090;DHT22;9677;50.656;13.064;2023-02-01T06:50:23;7.40;58.90
19090;DHT22;9677;50.656;13.064;2023-02-01T06:52:51;7.30;58.70
19090;DHT22;9677;50.656;13.064;2023-02-01T06:55:20;7.10;58.70
19090;DHT22;9677;50.656;13.064;2023-02-01T06:57:53;7.10;58.70
19090;DHT22;9677;50.656;13.064;2023-02-01T07:00:23;7.10;58.70
19090;DHT22;9677;50.656;13.064;2023-02-01T07:02:52;7.10;58.70
19090;DHT22;9677;50.656;13.064;2023-02-01T07:05:21;7.20;58.70
19090;DHT22;9677;50.656;13.064;2023-02-01T07:07:49;7.20;58.70
19090;DHT22;9677;50.656;13.064;2023-02-01T07:10:18;7.10;58.70
19090;DHT22;9677;50.656;13.064;2023-02-01T07:12:47;7.20;58.70
19090;DHT22;9677;50.656;13.064;2023-02-01T07:15:15;7.20;58.80
19090;DHT22;9677;50.656;13.064;2023-02-01T07:17:45;7.40;58.90
19090;DHT22;9677;50.656;13.064;2023-02-01T07:20:14;7.10;58.70
19090;DHT22;9677;50.656;13.064;2023-02-01T07:22:43;7.20;58.80
19090;DHT22;9677;50.656;13.064;2023-02-01T07:25:11;7.20;58.80
19090;DHT22;9677;50.656;13.064;2023-02-01T07:27:39;7.20;58.80
19090;DHT22;9677;50.656;13.064;2023-02-01T07:30:09;7.20;58.80
19090;DHT22;9677;50.656;13.064;2023-02-01T07:32:38;7.10;58.70
19090;DHT22;9677;50.656;13.064;2023-02-01T07:35:09;7.10;58.70
19090;DHT22;9677;50.656;13.064;2023-02-01T07:37:37;7.20;59.40
19090;DHT22;9677;50.656;13.064;2023-02-01T07:40:07;7.10;58.80
19090;DHT22;9677;50.656;13.064;2023-02-01T07:42:36;7.20;58.90
19090;DHT22;9677;50.656;13.064;2023-02-01T07:45:05;7.20;58.80
19090;DHT22;9677;50.656;13.064;2023-02-01T07:47:47;7.20;58.90
19090;DHT22;9677;50.656;13.064;2023-02-01T07:50:17;7.40;59.00
19090;DHT22;9677;50.656;13.064;2023-02-01T07:52:46;7.20;58.90
19090;DHT22;9677;50.656;13.064;2023-02-01T07:55:14;7.10;58.90
19090;DHT22;9677;50.656;13.064;2023-02-01T07:57:43;7.50;59.10
19090;DHT22;9677;50.656;13.064;2023-02-01T08:00:12;7.10;58.90
19090;DHT22;9677;50.656;13.064;2023-02-01T08:02:59;7.10;58.90
19090;DHT22;9677;50.656;13.064;2023-02-01T08:05:29;7.30;59.00
19090;DHT22;9677;50.656;13.064;2023-02-01T08:07:57;7.20;58.90
19090;DHT22;9677;50.656;13.064;2023-02-01T08:10:26;7.20;58.90
19090;DHT22;9677;50.656;13.064;2023-02-01T08:12:58;7.20;58.90
19090;DHT22;9677;50.656;13.064;2023-02-01T08:15:27;7.20;58.80
19090;DHT22;9677;50.656;13.064;2023-02-01T08:17:56;7.20;58.90
19090;DHT22;9677;50.656;13.064;2023-02-01T08:20:26;7.20;58.70
19090;DHT22;9677;50.656;13.064;2023-02-01T08:22:56;7.20;58.40
19090;DHT22;9677;50.656;13.064;2023-02-01T08:25:24;7.20;58.60
19090;DHT22;9677;50.656;13.064;2023-02-01T08:27:53;7.20;58.60
19090;DHT22;9677;50.656;13.064;2023-02-01T08:30:22;7.30;58.50
19090;DHT22;9677;50.656;13.064;2023-02-01T08:32:51;7.20;58.50
19090;DHT22;9677;50.656;13.064;2023-02-01T08:35:19;7.30;58.50
19090;DHT22;9677;50.656;13.064;2023-02-01T08:37:57;7.20;58.40
19090;DHT22;9677;50.656;13.064;2023-02-01T08:40:26;7.40;58.40
19090;DHT22;9677;50.656;13.064;2023-02-01T08:42:55;7.30;58.40
19090;DHT22;9677;50.656;13.064;2023-02-01T08:45:25;7.30;58.40
19090;DHT22;9677;50.656;13.064;2023-02-01T08:47:56;7.60;58.40
19090;DHT22;9677;50.656;13.064;2023-02-01T08:50:26;7.50;58.20
19090;DHT22;9677;50.656;13.064;2023-02-01T08:52:54;7.40;58.10
19090;DHT22;9677;50.656;13.064;2023-02-01T08:55:24;7.40;58.20
19090;DHT22;9677;50.656;13.064;2023-02-01T08:57:53;7.30;58.20
19090;DHT22;9677;50.656;13.064;2023-02-01T09:00:22;7.30;58.20
19090;DHT22;9677;50.656;13.064;2023-02-01T09:02:50;7.30;58.10
19090;DHT22;9677;50.656;13.064;2023-02-01T09:05:19;7.30;58.10
19090;DHT22;9677;50.656;13.064;2023-02-01T09:07:49;7.40;58.20
19090;DHT22;9677;50.656;13.064;2023-02-01T09:10:17;7.30;58.30
19090;DHT22;9677;50.656;13.064;2023-02-01T09:13:02;7.30;58.30
19090;DHT22;9677;50.656;13.064;2023-02-01T09:15:31;7.30;58.40
19090;DHT22;9677;50.656;13.064;2023-02-01T09:17:59;7.20;58.40
19090;DHT22;9677;50.656;13.064;2023-02-01T09:20:27;7.20;58.60
19090;DHT22;9677;50.656;13.064;2023-02-01T09:22:57;7.30;58.60
19090;DHT22;9677;50.656;13.064;2023-02-01T09:25:26;7.20;58.60
19090;DHT22;9677;50.656;13.064;2023-02-01T09:27:55;7.20;58.60
19090;DHT22;9677;50.656;13.064;2023-02-01T09:30:25;7.10;58.70
19090;DHT22;9677;50.656;13.064;2023-02-01T09:32:56;7.10;58.80
19090;DHT22;9677;50.656;13.064;2023-02-01T09:35:24;7.10;58.80
19090;DHT22;9677;50.656;13.064;2023-02-01T09:37:53;7.10;58.90
19090;DHT22;9677;50.656;13.064;2023-02-01T09:40:22;7.00;59.00
19090;DHT22;9677;50.656;13.064;2023-02-01T09:43:06;7.00;59.10
19090;DHT22;9677;50.656;13.064;2023-02-01T09:45:52;7.00;59.10
19090;DHT22;9677;50.656;13.064;2023-02-01T09:48:30;7.00;59.20
19090;DHT22;9677;50.656;13.064;2023-02-01T09:51:06;7.00;59.30
19090;DHT22;9677;50.656;13.064;2023-02-01T09:53:42;7.00;59.30
19090;DHT22;9677;50.656;13.064;2023-02-01T09:56:13;7.00;59.30
19090;DHT22;9677;50.656;13.064;2023-02-01T09:58:47;7.00;59.30
19090;DHT22;9677;50.656;13.064;2023-02-01T10:01:21;6.90;59.40
19090;DHT22;9677;50.656;13.064;2023-02-01T10:03:51;6.90;59.40
19090;DHT22;9677;50.656;13.064;2023-02-01T10:06:36;7.00;59.60
19090;DHT22;9677;50.656;13.064;2023-02-01T10:09:28;6.90;59.50
19090;DHT22;9677;50.656;13.064;2023-02-01T10:12:33;6.90;59.60
19090;DHT22;9677;50.656;13.064;2023-02-01T10:15:16;6.90;59.70
19090;DHT22;9677;50.656;13.064;2023-02-01T10:18:00;6.90;59.60
19090;DHT22;9677;50.656;13.064;2023-02-01T10:20:56;6.90;59.70
19090;DHT22;9677;50.656;13.064;2023-02-01T10:23:40;6.70;59.70
19090;DHT22;9677;50.656;13.064;2023-02-01T10:26:20;6.90;59.90
19090;DHT22;9677;50.656;13.064;2023-02-01T10:28:51;7.10;60.10
19090;DHT22;9677;50.656;13.064;2023-02-01T10:31:23;6.90;59.90
19090;DHT22;9677;50.656;13.064;2023-02-01T10:33:57;7.10;60.00
19090;DHT22;9677;50.656;13.064;2023-02-01T10:36:29;6.90;60.00
19090;DHT22;9677;50.656;13.064;2023-02-01T10:39:00;6.90;59.90
19090;DHT22;9677;50.656;13.064;2023-02-01T10:41:33;6.90;60.00
19090;DHT22;9677;50.656;13.064;2023-02-01T10:44:04;6.90;60.20
19090;DHT22;9677;50.656;13.064;2023-02-01T10:46:37;6.90;60.10
19090;DHT22;9677;50.656;13.064;2023-02-01T10:49:13;6.90;60.10
19090;DHT22;9677;50.656;13.064;2023-02-01T10:51:48;6.90;60.30
19090;DHT22;9677;50.656;13.064;2023-02-01T10:54:21;6.90;60.30
19090;DHT22;9677;50.656;13.064;2023-02-01T10:56:50;7.00;60.30
19090;DHT22;9677;50.656;13.064;2023-02-01T10:59:24;7.00;60.20
19090;DHT22;9677;50.656;13.064;2023-02-01T11:01:59;7.00;60.20
19090;DHT22;9677;50.656;13.064;2023-02-01T11:04:33;7.00;60.10
19090;DHT22;9677;50.656;13.064;2023-02-01T11:07:08;7.10;60.10
19090;DHT22;9677;50.656;13.064;2023-02-01T11:09:48;7.10;60.00
19090;DHT22;9677;50.656;13.064;2023-02-01T11:12:25;7.10;59.90
19090;DHT22;9677;50.656;13.064;2023-02-01T11:15:11;7.30;59.90
19090;DHT22;9677;50.656;13.064;2023-02-01T11:17:43;7.20;59.80
19090;DHT22;9677;50.656;13.064;2023-02-01T11:20:17;7.20;59.70
19090;DHT22;9677;50.656;13.064;2023-02-01T11:22:48;7.20;59.60
19090;DHT22;9677;50.656;13.064;2023-02-01T11:25:21;7.30;59.60
19090;DHT22;9677;50.656;13.064;2023-02-01T11:27:51;7.50;59.60
19090;DHT22;9677;50.656;13.064;2023-02-01T11:30:31;7.30;59.50
19090;DHT22;9677;50.656;13.064;2023-02-01T11:33:01;7.30;59.50
19090;DHT22;9677;50.656;13.064;2023-02-01T11:35:35;7.30;59.40
19090;DHT22;9677;50.656;13.064;2023-02-01T11:38:15;7.30;59.50
19090;DHT22;9677;50.656;13.064;2023-02-01T11:40:48;7.30;59.40
19090;DHT22;9677;50.656;13.064;2023-02-01T11:43:23;7.40;59.50
19090;DHT22;9677;50.656;13.064;2023-02-01T11:45:57;7.30;59.50
19090;DHT22;9677;50.656;13.064;2023-02-01T11:48:28;7.30;59.40
19090;DHT22;9677;50.656;13.064;2023-02-01T11:51:08;7.40;60.00
19090;DHT22;9677;50.656;13.064;2023-02-01T11:54:08;7.40;59.20
19090;DHT22;9677;50.656;13.064;2023-02-01T11:56:51;7.40;59.00
19090;DHT22;9677;50.656;13.064;2023-02-01T11:59:36;7.50;59.10
19090;DHT22;9677;50.656;13.064;2023-02-01T12:02:56;7.60;59.10
19090;DHT22;9677;50.656;13.064;2023-02-01T12:05:50;7.50;59.00
19090;DHT22;9677;50.656;13.064;2023-02-01T12:08:31;7.50;58.90
19090;DHT22;9677;50.656;13.064;2023-02-01T12:11:24;7.60;58.90
19090;DHT22;9677;50.656;13.064;2023-02-01T12:14:06;7.60;58.90
19090;DHT22;9677;50.656;13.064;2023-02-01T12:16:46;7.60;58.90
19090;DHT22;9677;50.656;13.064;2023-02-01T12:19:30;7.60;58.90
19090;DHT22;9677;50.656;13.064;2023-02-01T12:25:19;7.70;58.70
19090;DHT22;9677;50.656;13.064;2023-02-01T12:31:26;7.70;58.60
19090;DHT22;9677;50.656;13.064;2023-02-01T12:34:10;7.70;58.60
19090;DHT22;9677;50.656;13.064;2023-02-01T12:36:49;7.70;58.50
19090;DHT22;9677;50.656;13.064;2023-02-01T12:39:24;7.80;58.40
19090;DHT22;9677;50.656;13.064;2023-02-01T12:42:03;7.70;58.40
19090;DHT22;9677;50.656;13.064;2023-02-01T12:44:41;7.80;58.40
19090;DHT22;9677;50.656;13.064;2023-02-01T12:47:18;7.80;58.40
19090;DHT22;9677;50.656;13.064;2023-02-01T12:49:54;7.80;58.40
19090;DHT22;9677;50.656;13.064;2023-02-01T12:52:30;7.80;58.30
19090;DHT22;9677;50.656;13.064;2023-02-01T12:55:08;7.80;58.30
19090;DHT22;9677;50.656;13.064;2023-02-01T12:57:50;7.80;58.30
19090;DHT22;9677;50.656;13.064;2023-02-01T13:00:27;7.90;58.30
19090;DHT22;9677;50.656;13.064;2023-02-01T13:03:05;7.90;58.30
19090;DHT22;9677;50.656;13.064;2023-02-01T13:05:46;7.90;58.00
19090;DHT22;9677;50.656;13.064;2023-02-01T13:08:22;7.90;57.90
19090;DHT22;9677;50.656;13.064;2023-02-01T13:10:57;8.00;57.90
19090;DHT22;9677;50.656;13.064;2023-02-01T13:13:31;8.10;57.70
19090;DHT22;9677;50.656;13.064;2023-02-01T13:16:13;8.00;57.60
19090;DHT22;9677;50.656;13.064;2023-02-01T13:18:49;8.00;57.70
19090;DHT22;9677;50.656;13.064;2023-02-01T13:21:23;8.10;57.70
19090;DHT22;9677;50.656;13.064;2023-02-01T13:23:53;8.00;57.70
19090;DHT22;9677;50.656;13.064;2023-02-01T13:26:22;8.00;57.40
19090;DHT22;9677;50.656;13.064;2023-02-01T13:28:55;8.00;57.40
19090;DHT22;9677;50.656;13.064;2023-02-01T13:31:58;8.10;57.50
19090;DHT22;9677;50.656;13.064;2023-02-01T13:34:58;8.10;57.30
19090;DHT22;9677;50.656;13.064;2023-02-01T13:37:59;8.10;57.30
19090;DHT22;9677;50.656;13.064;2023-02-01T13:40:51;8.10;57.40
19090;DHT22;9677;50.656;13.064;2023-02-01T13:43:33;8.30;57.60
19090;DHT22;9677;50.656;13.064;2023-02-01T13:46:05;8.10;57.10
19090;DHT22;9677;50.656;13.064;2023-02-01T13:48:45;8.30;57.20
19090;DHT22;9677;50.656;13.064;2023-02-01T13:51:15;8.20;57.20
19090;DHT22;9677;50.656;13.064;2023-02-01T13:53:48;8.20;57.50
19090;DHT22;9677;50.656;13.064;2023-02-01T13:56:18;8.20;57.40
19090;DHT22;9677;50.656;13.064;2023-02-01T13:58:48;8.10;57.40
19090;DHT22;9677;50.656;13.064;2023-02-01T14:01:35;8.10;57.40
19090;DHT22;9677;50.656;13.064;2023-02-01T14:04:05;8.10;57.20
19090;DHT22;9677;50.656;13.064;2023-02-01T14:06:43;8.00;57.30
19090;DHT22;9677;50.656;13.064;2023-02-01T14:09:18;8.00;57.20
19090;DHT22;9677;50.656;13.064;2023-02-01T14:11:49;8.00;57.30
19090;DHT22;9677;50.656;13.064;2023-02-01T14:14:42;8.00;57.40
19090;DHT22;9677;50.656;13.064;2023-02-01T14:17:37;8.00;57.30
19090;DHT22;9677;50.656;13.064;2023-02-01T14:23:18;8.00;58.00
19090;DHT22;9677;50.656;13.064;2023-02-01T14:26:04;8.00;57.50
19090;DHT22;9677;50.656;13.064;2023-02-01T14:28:45;8.00;57.40
19090;DHT22;9677;50.656;13.064;2023-02-01T14:31:38;8.00;57.50
19090;DHT22;9677;50.656;13.064;2023-02-01T14:34:18;8.00;57.50
19090;DHT22;9677;50.656;13.064;2023-02-01T14:36:51;8.00;57.50
19090;DHT22;9677;50.656;13.064;2023-02-01T14:39:31;8.10;57.50
19090;DHT22;9677;50.656;13.064;2023-02-01T14:42:13;8.00;57.20
19090;DHT22;9677;50.656;13.064;2023-02-01T14:44:49;8.00;57.40
19090;DHT22;9677;50.656;13.064;2023-02-01T14:47:28;8.00;57.50
19090;DHT22;9677;50.656;13.064;2023-02-01T14:50:20;7.90;57.50
19090;DHT22;9677;50.656;13.064;2023-02-01T14:55:49;7.90;57.40
19090;DHT22;9677;50.656;13.064;2023-02-01T14:58:31;8.00;57.60
19090;DHT22;9677;50.656;13.064;2023-02-01T15:01:06;7.90;57.50
19090;DHT22;9677;50.656;13.064;2023-02-01T15:03:57;8.10;57.60
19090;DHT22;9677;50.656;13.064;2023-02-01T15:06:33;8.10;57.70
19090;DHT22;9677;50.656;13.064;2023-02-01T15:09:12;7.90;57.60
19090;DHT22;9677;50.656;13.064;2023-02-01T15:12:01;8.00;57.70
19090;DHT22;9677;50.656;13.064;2023-02-01T15:14:33;7.90;57.60
19090;DHT22;9677;50.656;13.064;2023-02-01T15:17:02;7.90;57.60
19090;DHT22;9677;50.656;13.064;2023-02-01T15:19:52;7.90;57.50
19090;DHT22;9677;50.656;13.064;2023-02-01T15:22:23;7.80;57.50
19090;DHT22;9677;50.656;13.064;2023-02-01T15:24:52;7.90;57.70
19090;DHT22;9677;50.656;13.064;2023-02-01T15:27:22;7.80;57.50
19090;DHT22;9677;50.656;13.064;2023-02-01T15:29:50;7.80;57.60
19090;DHT22;9677;50.656;13.064;2023-02-01T15:32:29;7.80;57.70
19090;DHT22;9677;50.656;13.064;2023-02-01T15:35:00;7.70;57.60
19090;DHT22;9677;50.656;13.064;2023-02-01T15:37:30;7.70;57.70
19090;DHT22;9677;50.656;13.064;2023-02-01T15:40:18;7.80;57.70
19090;DHT22;9677;50.656;13.064;2023-02-01T15:42:51;7.70;57.70
19090;DHT22;9677;50.656;13.064;2023-02-01T15:45:24;7.70;57.70
19090;DHT22;9677;50.656;13.064;2023-02-01T15:47:55;7.70;57.60
19090;DHT22;9677;50.656;13.064;2023-02-01T15:50:27;7.80;57.70
19090;DHT22;9677;50.656;13.064;2023-02-01T15:53:02;7.70;57.60
19090;DHT22;9677;50.656;13.064;2023-02-01T15:55:36;7.70;57.70
19090;DHT22;9677;50.656;13.064;2023-02-01T15:58:14;7.70;57.60
19090;DHT22;9677;50.656;13.064;2023-02-01T16:00:46;7.70;57.70
19090;DHT22;9677;50.656;13.064;2023-02-01T16:03:28;7.70;57.70
19090;DHT22;9677;50.656;13.064;2023-02-01T16:06:04;7.80;57.60
19090;DHT22;9677;50.656;13.064;2023-02-01T16:08:36;7.70;57.60
19090;DHT22;9677;50.656;13.064;2023-02-01T16:11:23;7.60;57.50
19090;DHT22;9677;50.656;13.064;2023-02-01T16:13:54;7.60;57.50
19090;DHT22;9677;50.656;13.064;2023-02-01T16:16:23;7.60;57.50
19090;DHT22;9677;50.656;13.064;2023-02-01T16:18:51;7.60;57.60
19090;DHT22;9677;50.656;13.064;2023-02-01T16:21:20;7.60;57.50
19090;DHT22;9677;50.656;13.064;2023-02-01T16:23:50;7.70;57.70
19090;DHT22;9677;50.656;13.064;2023-02-01T16:26:19;7.60;57.50
19090;DHT22;9677;50.656;13.064;2023-02-01T16:28:48;7.60;57.40
19090;DHT22;9677;50.656;13.064;2023-02-01T16:31:18;7.60;57.20
19090;DHT22;9677;50.656;13.064;2023-02-01T16:33:50;7.60;57.60
19090;DHT22;9677;50.656;13.064;2023-02-01T16:36:19;7.60;57.60
19090;DHT22;9677;50.656;13.064;2023-02-01T16:39:14;7.60;57.60
19090;DHT22;9677;50.656;13.064;2023-02-01T16:41:42;7.60;57.50
19090;DHT22;9677;50.656;13.064;2023-02-01T16:44:12;7.60;57.60
19090;DHT22;9677;50.656;13.064;2023-02-01T16:46:42;7.60;57.60
19090;DHT22;9677;50.656;13.064;2023-02-01T16:49:21;7.60;57.60
19090;DHT22;9677;50.656;13.064;2023-02-01T16:51:52;7.60;57.60
19090;DHT22;9677;50.656;13.064;2023-02-01T16:54:25;7.70;57.70
19090;DHT22;9677;50.656;13.064;2023-02-01T16:56:53;7.60;57.70